Time;durP1;ratioP1;P1;durP2;ratioP2;P2;SDS_P1;SDS_P2;PMS_P1;PMS_P2;Temp;Humidity;BMP_temperature;BMP_pressure;BME280_temperature;BME280_humidity;BME280_pressure;Samples;Min_cycle;Max_cycle;Signal;HPM_P1;HPM_P2
2022/05/12 00:00:30;;;;;;;20.23;4.40;;;;;;;7.70;100.00;101058.05;1753985;81;21067;-82
2022/05/12 00:02:56;;;;;;;20.80;4.60;;;;;;;7.65;100.00;101063.84;1754017;81;20982;-81
2022/05/12 00:05:23;;;;;;;19.15;4.90;;;;;;;7.61;100.00;101067.47;1754021;81;21510;-81
2022/05/12 00:07:50;;;;;;;15.48;4.40;;;;;;;7.59;100.00;101068.74;1753986;81;21045;-82
2022/05/12 00:10:21;;;;;;;13.55;4.37;;;;;;;7.57;100.00;101074.35;1754092;81;21416;-80
2022/05/12 00:12:48;;;;;;;15.38;4.90;;;;;;;7.56;100.00;101068.70;1754114;81;21127;-82
2022/05/12 00:15:20;;;;;;;14.80;5.03;;;;;;;7.54;100.00;101072.13;1754169;81;21026;-81
2022/05/12 00:17:46;;;;;;;14.10;4.62;;;;;;;7.54;100.00;101074.00;1754143;81;20979;-81
2022/05/12 00:20:16;;;;;;;23.00;4.67;;;;;;;7.54;100.00;101070.78;1754203;80;21639;-81
2022/05/12 00:22:43;;;;;;;18.12;4.87;;;;;;;7.52;100.00;101072.87;1754912;81;21055;-81
2022/05/12 00:25:16;;;;;;;14.53;5.12;;;;;;;7.50;100.00;101069.62;1754213;81;21482;-82
2022/05/12 00:27:42;;;;;;;19.75;5.00;;;;;;;7.51;100.00;101064.54;1751534;81;21045;-81
2022/05/12 00:30:10;;;;;;;17.82;4.83;;;;;;;7.49;100.00;101064.75;1754154;81;20977;-82
2022/05/12 00:32:39;;;;;;;19.85;4.42;;;;;;;7.49;100.00;101065.28;1753979;81;21069;-82
2022/05/12 00:35:08;;;;;;;18.02;5.10;;;;;;;7.47;100.00;101070.05;1754149;81;21062;-81
2022/05/12 00:37:34;;;;;;;21.37;5.97;;;;;;;7.47;100.00;101063.34;1754160;81;21243;-83
2022/05/12 00:40:00;;;;;;;16.30;5.33;;;;;;;7.42;100.00;101057.86;1731397;81;21017;-83
2022/05/12 00:42:27;;;;;;;12.33;4.53;;;;;;;7.36;100.00;101062.27;1754199;81;20967;-83
2022/05/12 00:44:53;;;;;;;19.98;5.70;;;;;;;7.28;100.00;101058.55;1754076;81;21057;-83
2022/05/12 00:47:19;;;;;;;18.55;5.28;;;;;;;7.19;100.00;101059.38;1754148;81;21739;-82
2022/05/12 00:49:47;;;;;;;16.85;5.25;;;;;;;7.15;100.00;101065.44;1754138;81;21076;-83
2022/05/12 00:52:26;;;;;;;16.35;4.83;;;;;;;7.07;100.00;101059.03;1754084;81;20987;-82
2022/05/12 00:55:06;;;;;;;17.55;5.37;;;;;;;6.99;100.00;101063.64;1714145;82;21575;-82
2022/05/12 00:57:39;;;;;;;17.62;4.72;;;;;;;6.95;100.00;101059.78;1710454;83;21106;-83
2022/05/12 01:00:09;;;;;;;16.93;4.90;;;;;;;6.89;100.00;101062.02;1710820;83;21058;-83
2022/05/12 01:02:36;;;;;;;13.25;3.95;;;;;;;6.84;100.00;101064.55;1714084;83;21305;-82
2022/05/12 01:05:03;;;;;;;12.98;5.05;;;;;;;6.78;100.00;101068.12;1713852;83;21714;-83
2022/05/12 01:07:30;;;;;;;14.45;4.15;;;;;;;6.73;100.00;101066.62;1713192;83;21646;-82
2022/05/12 01:09:56;;;;;;;18.85;5.45;;;;;;;6.65;100.00;101059.71;1713961;83;20983;-82
2022/05/12 01:12:24;;;;;;;14.53;4.92;;;;;;;6.61;100.00;101061.18;1670342;84;21682;-82
2022/05/12 01:14:50;;;;;;;18.15;5.15;;;;;;;6.52;100.00;101069.20;1691533;83;21038;-83
2022/05/12 01:17:19;;;;;;;12.53;4.53;;;;;;;6.42;100.00;101068.38;1691815;84;21074;-84
2022/05/12 01:19:48;;;;;;;19.40;4.80;;;;;;;6.35;100.00;101064.93;1691431;84;21049;-83
2022/05/12 01:22:31;;;;;;;17.27;4.83;;;;;;;6.27;100.00;101066.05;1691470;84;21628;-83
2022/05/12 01:24:59;;;;;;;13.32;4.70;;;;;;;6.24;100.00;101067.01;1661360;86;21113;-84
2022/05/12 01:27:29;;;;;;;15.05;4.65;;;;;;;6.17;100.00;101069.72;1661035;86;20987;-83
2022/05/12 01:29:56;;;;;;;16.87;5.37;;;;;;;6.10;100.00;101071.13;1657162;86;21010;-82
2022/05/12 01:32:26;;;;;;;17.40;5.08;;;;;;;6.04;100.00;101071.19;1661018;86;21030;-82
2022/05/12 01:34:53;;;;;;;15.65;5.05;;;;;;;5.99;100.00;101071.82;1661036;86;21098;-83
2022/05/12 01:37:20;;;;;;;15.08;4.42;;;;;;;5.92;100.00;101072.38;1661112;86;21593;-83
2022/05/12 01:39:46;;;;;;;13.68;4.75;;;;;;;5.86;100.00;101067.89;1661299;86;21138;-83
2022/05/12 01:42:13;;;;;;;12.15;4.53;;;;;;;5.81;100.00;101068.53;1661136;86;21015;-83
2022/05/12 01:44:41;;;;;;;13.20;4.42;;;;;;;5.74;100.00;101071.77;1661178;86;21097;-84
2022/05/12 01:47:09;;;;;;;16.35;4.35;;;;;;;5.69;100.00;101068.92;1638781;86;21070;-82
2022/05/12 01:49:36;;;;;;;13.55;4.08;;;;;;;5.60;100.00;101064.34;1660880;86;21560;-83
2022/05/12 01:52:03;;;;;;;15.60;4.60;;;;;;;5.56;100.00;101062.30;1689616;83;21097;-83
2022/05/12 01:54:30;;;;;;;15.58;4.40;;;;;;;5.53;100.00;101064.92;1694380;84;21058;-82
2022/05/12 01:56:56;;;;;;;17.60;4.85;;;;;;;5.53;100.00;101060.91;1694612;84;21657;-82
2022/05/12 01:59:23;;;;;;;13.00;4.50;;;;;;;5.51;100.00;101069.65;1694517;84;21305;-82
2022/05/12 02:01:50;;;;;;;14.50;4.58;;;;;;;5.50;100.00;101074.70;1719497;81;20982;-83
2022/05/12 02:04:17;;;;;;;19.60;4.97;;;;;;;5.48;100.00;101072.75;1754110;80;21069;-83
2022/05/12 02:06:45;;;;;;;15.18;5.40;;;;;;;5.42;100.00;101078.95;1754037;81;21022;-82
2022/05/12 02:09:11;;;;;;;18.27;4.33;;;;;;;5.42;100.00;101078.43;1754130;81;21537;-82
2022/05/12 02:11:38;;;;;;;21.12;4.92;;;;;;;5.43;100.00;101079.25;1754010;81;20979;-83
2022/05/12 02:14:05;;;;;;;15.55;5.10;;;;;;;5.43;100.00;101079.25;1753937;81;21143;-82
2022/05/12 02:16:34;;;;;;;16.40;4.75;;;;;;;5.44;100.00;101077.72;1754073;81;21865;-83
2022/05/12 02:19:01;;;;;;;18.15;5.17;;;;;;;5.45;100.00;101078.00;1753998;81;21562;-83
2022/05/12 02:21:27;;;;;;;17.07;5.53;;;;;;;5.48;100.00;101082.11;1754661;81;21419;-82
2022/05/12 02:23:54;;;;;;;17.32;4.95;;;;;;;5.51;100.00;101082.20;1754143;81;21074;-82
2022/05/12 02:26:20;;;;;;;28.32;6.90;;;;;;;5.57;100.00;101088.02;1754125;81;21003;-83
2022/05/12 02:28:46;;;;;;;34.63;9.83;;;;;;;5.63;100.00;101084.49;1754160;81;21005;-83
2022/05/12 02:31:12;;;;;;;52.08;12.53;;;;;;;5.64;100.00;101084.26;1753984;80;20963;-83
2022/05/12 02:33:38;;;;;;;51.55;12.33;;;;;;;5.71;100.00;101085.58;1754294;81;20914;-83
2022/05/12 02:36:05;;;;;;;40.05;9.93;;;;;;;5.80;100.00;101085.62;1754170;80;20998;-83
2022/05/12 02:38:31;;;;;;;34.48;10.20;;;;;;;5.86;100.00;101083.94;1754491;81;21018;-82
2022/05/12 02:40:57;;;;;;;32.73;8.65;;;;;;;5.94;100.00;101087.70;1754252;81;21963;-83
2022/05/12 02:43:24;;;;;;;42.62;11.03;;;;;;;6.02;100.00;101091.45;1754385;81;20950;-83
2022/05/12 02:45:54;;;;;;;45.65;10.35;;;;;;;6.10;100.00;101093.86;1753915;81;20982;-83
2022/05/12 02:48:26;;;;;;;39.95;10.50;;;;;;;6.18;100.00;101095.46;1714423;82;21516;-83
2022/05/12 02:50:52;;;;;;;34.25;9.88;;;;;;;6.26;100.00;101091.15;1650130;85;21014;-83
2022/05/12 02:53:19;;;;;;;36.75;9.05;;;;;;;6.36;100.00;101098.19;1650339;85;21068;-83
2022/05/12 02:55:46;;;;;;;34.25;9.45;;;;;;;6.48;100.00;101091.59;1650120;87;21210;-83
2022/05/12 02:58:13;;;;;;;39.30;10.90;;;;;;;6.63;100.00;101101.95;1650400;85;21116;-83
2022/05/12 03:00:40;;;;;;;37.55;10.32;;;;;;;6.81;100.00;101094.45;1650024;85;21120;-83
2022/05/12 03:03:07;;;;;;;41.02;9.88;;;;;;;6.95;100.00;101095.14;1650065;85;21046;-83
2022/05/12 03:05:35;;;;;;;30.15;9.20;;;;;;;7.13;100.00;101091.11;1650189;85;21066;-82
2022/05/12 03:08:03;;;;;;;29.52;8.75;;;;;;;7.34;100.00;101090.34;1649923;85;21120;-83
2022/05/12 03:10:30;;;;;;;36.08;10.60;;;;;;;7.48;100.00;101095.30;1650095;87;21206;-83
2022/05/12 03:12:56;;;;;;;49.27;13.83;;;;;;;7.67;100.00;101093.91;1649650;85;21076;-83
2022/05/12 03:15:23;;;;;;;54.65;14.65;;;;;;;7.89;100.00;101092.36;1650270;85;20898;-83
2022/05/12 03:17:49;;;;;;;57.38;15.83;;;;;;;8.16;100.00;101100.80;1649906;85;21116;-82
2022/05/12 03:20:18;;;;;;;62.95;16.90;;;;;;;8.82;100.00;101099.39;1650048;85;21529;-83
2022/05/12 03:22:45;;;;;;;76.12;20.77;;;;;;;9.60;100.00;101095.86;1650101;85;21053;-82
2022/05/12 03:25:14;;;;;;;83.27;23.57;;;;;;;10.34;100.00;101099.30;1649999;85;21608;-83
2022/05/12 03:27:41;;;;;;;73.00;22.50;;;;;;;11.14;100.00;101103.39;1649579;87;21135;-83
2022/05/12 03:30:12;;;;;;;61.60;18.67;;;;;;;11.78;100.00;101089.80;1650068;85;21577;-83
2022/05/12 03:32:38;;;;;;;44.63;13.20;;;;;;;12.48;100.00;101094.72;1649791;86;21549;-83
2022/05/12 03:35:05;;;;;;;37.28;10.13;;;;;;;13.14;100.00;101097.77;1628019;87;20902;-83
2022/05/12 03:37:33;;;;;;;37.98;10.75;;;;;;;13.98;100.00;101102.63;1650067;85;21143;-82
2022/05/12 03:39:59;;;;;;;32.70;9.88;;;;;;;15.25;100.00;101103.51;1649765;85;21068;-83
2022/05/12 03:42:25;;;;;;;30.25;9.00;;;;;;;16.50;100.00;101104.55;1650489;85;21089;-83
2022/05/12 03:44:54;;;;;;;31.30;8.93;;;;;;;17.69;100.00;101097.44;1661651;84;21079;-83
2022/05/12 03:47:27;;;;;;;37.23;10.70;;;;;;;18.68;91.65;101099.09;1704905;81;21411;-84
2022/05/12 03:49:57;;;;;;;32.85;10.32;;;;;;;19.63;78.33;101104.00;1754252;81;21029;-84
2022/05/12 03:52:24;;;;;;;28.83;9.98;;;;;;;20.62;72.26;101096.11;1754066;81;21134;-85
2022/05/12 03:54:51;;;;;;;26.12;6.58;;;;;;;21.48;62.15;101099.45;1754023;81;21090;-84
2022/05/12 03:57:18;;;;;;;18.30;5.95;;;;;;;22.18;57.49;101097.52;1754200;81;20994;-84
2022/05/12 03:59:48;;;;;;;19.73;5.28;;;;;;;22.83;52.33;101099.09;1754161;81;20998;-84
2022/05/12 04:02:13;;;;;;;15.58;4.80;;;;;;;23.55;49.47;101099.95;1753846;81;20980;-84
2022/05/12 04:04:43;;;;;;;16.05;5.22;;;;;;;24.12;46.32;101105.42;1754166;81;20970;-84
2022/05/12 04:07:13;;;;;;;10.75;4.55;;;;;;;24.63;44.34;101107.98;1753718;81;21116;-84
2022/05/12 04:09:39;;;;;;;13.08;4.70;;;;;;;24.99;41.62;101098.11;1713841;82;21059;-85
2022/05/12 04:12:09;;;;;;;16.52;5.92;;;;;;;25.48;41.35;101097.50;1714286;83;21041;-85
2022/05/12 04:14:36;;;;;;;13.90;5.33;;;;;;;26.00;39.78;101095.28;1713838;83;21011;-85
2022/05/12 04:17:02;;;;;;;13.13;4.95;;;;;;;26.67;38.69;101101.57;1714229;82;21054;-85
2022/05/12 04:19:28;;;;;;;12.60;5.53;;;;;;;27.15;37.83;101102.38;1713642;82;21028;-85
2022/05/12 04:21:54;;;;;;;14.70;4.40;;;;;;;27.64;36.71;101097.69;1714278;83;20917;-83
2022/05/12 04:24:21;;;;;;;13.48;5.10;;;;;;;28.09;35.16;101096.25;1714189;83;21038;-85
2022/05/12 04:26:47;;;;;;;13.90;4.72;;;;;;;28.51;34.43;101099.01;1714213;83;21007;-83
2022/05/12 04:29:14;;;;;;;13.98;4.28;;;;;;;28.82;33.17;101090.19;1714258;83;21547;-84
2022/05/12 04:31:41;;;;;;;12.20;5.37;;;;;;;29.25;32.15;101095.63;1713906;83;21136;-83
2022/05/12 04:36:53;;;;;;;16.20;4.97;;;;;;;29.68;30.51;101084.52;1713848;83;21503;-85
2022/05/12 04:39:20;;;;;;;16.75;4.35;;;;;;;30.20;29.95;101091.02;1714088;83;21043;-85
2022/05/12 04:41:46;;;;;;;13.60;4.70;;;;;;;30.48;28.56;101092.52;1714180;83;22012;-83
2022/05/12 04:44:13;;;;;;;12.43;4.67;;;;;;;30.76;27.54;101096.91;1713933;83;21074;-85
2022/05/12 04:46:41;;;;;;;14.40;4.97;;;;;;;31.07;26.97;101098.95;1690026;83;21527;-85
2022/05/12 04:49:09;;;;;;;11.53;4.70;;;;;;;31.26;26.13;101095.67;1714041;83;21586;-83
2022/05/12 04:51:37;;;;;;;14.63;4.92;;;;;;;31.78;26.12;101093.56;1690386;83;21046;-85
2022/05/12 04:54:09;;;;;;;13.55;4.58;;;;;;;32.07;25.12;101095.86;1713787;83;21051;-86
2022/05/12 04:56:33;;;;;;;13.20;5.00;;;;;;;32.18;24.99;101099.47;1710243;83;21047;-86
2022/05/12 04:58:59;;;;;;;19.17;4.50;;;;;;;32.45;24.95;101101.92;1713931;83;21027;-85
2022/05/12 05:01:25;;;;;;;12.13;4.55;;;;;;;32.72;24.36;101107.90;1713984;83;20927;-84
2022/05/12 05:03:51;;;;;;;13.95;4.75;;;;;;;33.12;23.97;101105.87;1714036;82;21098;-86
2022/05/12 05:06:17;;;;;;;14.93;4.60;;;;;;;33.47;23.55;101103.56;1731240;81;20998;-85
2022/05/12 05:08:43;;;;;;;13.50;4.62;;;;;;;33.99;23.20;101102.95;1753930;81;21115;-84
2022/05/12 05:11:09;;;;;;;15.15;4.80;;;;;;;34.09;22.29;101102.94;1754311;81;20974;-85
2022/05/12 05:13:35;;;;;;;16.82;4.92;;;;;;;34.22;22.16;101107.44;1734553;81;21014;-86
2022/05/12 05:16:02;;;;;;;17.32;4.67;;;;;;;34.65;21.98;101107.72;1764785;81;20894;-86
2022/05/12 05:18:28;;;;;;;15.53;4.28;;;;;;;35.25;21.51;101111.97;1764678;81;20998;-88
2022/05/12 05:20:54;;;;;;;10.90;4.62;;;;;;;35.68;20.79;101109.48;1764898;81;21230;-83
2022/05/12 05:23:23;;;;;;;15.20;5.00;;;;;;;35.91;20.46;101110.77;1764882;81;20890;-84
2022/05/12 05:25:51;;;;;;;14.03;4.92;;;;;;;35.90;20.42;101106.38;1763908;81;20898;-85
2022/05/12 05:28:18;;;;;;;22.95;4.75;;;;;;;36.00;19.60;101108.22;1764810;81;20990;-88
2022/05/12 05:30:45;;;;;;;12.33;4.62;;;;;;;35.99;19.98;101112.87;1764778;81;21077;-85
2022/05/12 05:33:11;;;;;;;10.85;4.00;;;;;;;36.04;19.38;101107.61;1764453;81;22089;-87
2022/05/12 05:35:37;;;;;;;10.75;4.12;;;;;;;35.47;19.26;101113.91;1764680;81;20979;-84
2022/05/12 05:38:04;;;;;;;12.70;3.85;;;;;;;34.61;19.33;101105.57;1764829;81;21082;-85
2022/05/12 05:40:30;;;;;;;12.40;4.60;;;;;;;34.34;19.91;101102.75;1764611;81;21002;-86
2022/05/12 05:42:58;;;;;;;10.48;4.90;;;;;;;34.74;20.32;101098.23;1764428;81;21483;-89
2022/05/12 05:45:26;;;;;;;12.30;4.80;;;;;;;35.61;19.85;101105.35;1764759;81;20966;-87
2022/05/12 05:47:57;;;;;;;12.88;4.92;;;;;;;36.35;19.63;101106.12;1764801;80;21052;-86
2022/05/12 05:50:28;;;;;;;17.37;4.85;;;;;;;36.91;18.64;101099.37;1733877;81;21033;-88
2022/05/12 05:55:42;;;;;;;12.47;5.62;;;;;;;37.75;18.28;101093.12;1686159;84;21086;-87
2022/05/12 05:58:09;;;;;;;18.82;6.08;;;;;;;38.30;17.77;101092.88;1686338;84;21357;-88
2022/05/12 06:00:37;;;;;;;8.00;4.62;;;;;;;38.53;17.24;101089.70;1686503;83;21155;-86
2022/05/12 06:03:05;;;;;;;15.90;4.92;;;;;;;39.02;17.49;101089.02;1686310;84;20998;-87
2022/05/12 06:05:31;;;;;;;15.05;5.35;;;;;;;39.40;16.35;101089.79;1686281;84;21513;-86
2022/05/12 06:08:03;;;;;;;19.50;6.30;;;;;;;39.43;16.70;101088.89;1686280;84;21018;-86
2022/05/12 06:10:30;;;;;;;15.58;5.42;;;;;;;39.75;16.24;101089.98;1686644;84;21061;-85
2022/05/12 06:12:56;;;;;;;15.45;6.62;;;;;;;39.84;16.21;101086.48;1680400;84;21007;-87
2022/05/12 06:15:24;;;;;;;15.28;6.60;;;;;;;40.09;15.65;101084.27;1676571;84;21039;-88
2022/05/12 06:17:50;;;;;;;11.75;5.80;;;;;;;40.08;15.58;101075.64;1676371;84;21023;-86
2022/05/12 06:20:16;;;;;;;20.60;5.58;;;;;;;40.20;15.35;101069.20;1676537;84;21044;-89
2022/05/12 06:22:43;;;;;;;14.58;6.05;;;;;;;40.32;14.81;101067.60;1676498;84;21182;-89
2022/05/12 06:25:12;;;;;;;12.60;4.87;;;;;;;40.21;14.92;101062.93;1676303;84;21027;-86
2022/05/12 06:27:38;;;;;;;12.13;5.33;;;;;;;40.21;14.53;101062.93;1676631;84;21109;-89
2022/05/12 06:30:11;;;;;;;12.50;5.10;;;;;;;40.28;14.76;101067.73;1676535;85;20913;-87
2022/05/12 06:32:36;;;;;;;12.65;5.65;;;;;;;40.49;14.66;101071.86;1676388;83;21387;-86
2022/05/12 06:35:02;;;;;;;14.93;6.22;;;;;;;40.47;14.23;101071.52;1676936;84;21099;-86
2022/05/12 06:37:28;;;;;;;12.43;6.33;;;;;;;40.52;13.90;101076.59;1676584;84;21476;-86
2022/05/12 06:39:57;;;;;;;14.85;5.53;;;;;;;40.86;14.25;101065.16;1676859;85;21093;-86
2022/05/12 06:42:23;;;;;;;17.15;5.47;;;;;;;41.10;14.10;101073.22;1676730;84;21051;-85
2022/05/12 06:44:50;;;;;;;14.83;6.12;;;;;;;41.44;13.87;101069.48;1676663;84;21073;-88
2022/05/12 06:47:16;;;;;;;10.53;4.75;;;;;;;41.68;14.02;101072.61;1676335;84;21966;-88
2022/05/12 06:49:43;;;;;;;9.50;4.92;;;;;;;41.53;13.31;101069.55;1714042;81;21048;-88
2022/05/12 06:52:10;;;;;;;18.65;5.62;;;;;;;41.40;13.82;101063.97;1757961;81;20981;-88
2022/05/12 06:54:39;;;;;;;17.10;6.03;;;;;;;41.61;13.49;101060.17;1754005;81;20999;-87
2022/05/12 06:57:06;;;;;;;16.80;5.97;;;;;;;41.45;13.60;101062.59;1754072;81;21120;-88
2022/05/12 06:59:39;;;;;;;14.00;5.65;;;;;;;41.80;13.66;101063.25;1753911;81;21383;-86
2022/05/12 07:02:08;;;;;;;13.43;5.72;;;;;;;41.88;13.33;101058.85;1751390;81;20939;-87
2022/05/12 07:04:34;;;;;;;9.58;4.87;;;;;;;42.23;13.69;101064.33;1753911;81;21542;-86
2022/05/12 07:07:00;;;;;;;11.12;4.70;;;;;;;42.39;13.15;101057.00;1754117;81;21073;-87
2022/05/12 07:09:26;;;;;;;6.50;4.58;;;;;;;42.80;13.18;101052.61;1753790;81;21053;-86
2022/05/12 07:11:53;;;;;;;11.03;4.12;;;;;;;42.65;12.97;101052.42;1754148;81;21682;-86
2022/05/12 07:14:21;;;;;;;8.80;4.15;;;;;;;42.72;12.58;101062.08;1753684;81;21049;-86
2022/05/12 07:16:48;;;;;;;7.72;4.40;;;;;;;42.72;12.49;101058.43;1753585;80;21483;-89
2022/05/12 07:19:15;;;;;;;7.10;4.10;;;;;;;42.79;12.49;101055.30;1754133;81;20978;-86
2022/05/12 07:27:11;;;;;;;3.83;3.42;;;;;;;42.82;12.37;101049.45;1644541;85;21047;-88
2022/05/12 07:29:37;;;;;;;7.10;3.22;;;;;;;42.85;12.21;101040.64;1649094;87;20892;-87
2022/05/12 07:32:04;;;;;;;9.83;3.70;;;;;;;42.87;11.92;101040.95;1648902;87;21031;-87
2022/05/12 07:34:30;;;;;;;4.40;3.05;;;;;;;42.96;12.31;101037.32;1649097;85;21075;-87
2022/05/12 07:36:57;;;;;;;5.92;3.10;;;;;;;43.18;12.08;101045.65;1649191;87;21836;-86
2022/05/12 07:39:28;;;;;;;5.80;3.33;;;;;;;43.02;11.99;101037.63;1648618;87;21326;-87
2022/05/12 07:41:57;;;;;;;10.45;3.50;;;;;;;43.34;12.26;101039.63;1648825;87;21251;-86
2022/05/12 07:44:31;;;;;;;12.28;3.45;;;;;;;43.73;11.82;101037.75;1648851;87;21474;-87
2022/05/12 07:46:51;;;;;;;7.45;3.12;;;;;;;43.64;11.69;101039.22;1648529;85;21562;-89
2022/05/12 07:49:18;;;;;;;5.53;3.50;;;;;;;43.31;11.79;101031.43;1648580;87;21123;-88
2022/05/12 07:51:44;;;;;;;4.87;3.00;;;;;;;43.07;11.84;101047.55;1626361;87;21054;-87
2022/05/12 07:54:10;;;;;;;5.40;3.20;;;;;;;43.09;11.84;101046.42;1648612;87;21532;-85
2022/05/12 07:56:38;;;;;;;6.55;3.15;;;;;;;42.69;12.00;101046.62;1648991;87;21075;-87
2022/05/12 07:59:06;;;;;;;6.78;2.98;;;;;;;43.05;11.93;101039.50;1648704;87;21531;-89
2022/05/12 08:01:32;;;;;;;8.10;3.33;;;;;;;43.06;11.82;101041.06;1579129;90;21990;-88
2022/05/12 08:03:59;;;;;;;6.33;3.27;;;;;;;43.05;11.87;101043.76;1705713;82;21042;-89
2022/05/12 08:06:25;;;;;;;11.08;3.25;;;;;;;43.23;11.71;101042.95;1722050;82;21696;-85
2022/05/12 08:08:52;;;;;;;4.90;3.60;;;;;;;43.30;11.62;101046.89;1721513;83;21132;-86
2022/05/12 08:11:19;;;;;;;5.35;3.22;;;;;;;43.20;11.60;101036.81;1722127;82;21052;-85
2022/05/12 08:13:47;;;;;;;6.92;3.75;;;;;;;43.49;11.77;101041.93;1721559;82;21097;-87
2022/05/12 08:16:16;;;;;;;5.37;3.92;;;;;;;43.84;11.63;101039.29;1721625;82;21084;-88
2022/05/12 08:18:45;;;;;;;5.83;4.15;;;;;;;43.86;11.49;101036.13;1722147;82;21070;-86
2022/05/12 08:21:11;;;;;;;5.85;3.80;;;;;;;43.83;11.79;101039.93;1721526;82;21121;-85
2022/05/12 08:23:37;;;;;;;9.58;3.75;;;;;;;44.05;11.83;101043.92;1722027;82;21026;-86
2022/05/12 08:26:04;;;;;;;6.83;3.35;;;;;;;43.80;11.39;101038.66;1722018;82;21092;-87
2022/05/12 08:28:30;;;;;;;9.65;3.62;;;;;;;43.25;11.65;101036.18;1721984;82;21061;-85
2022/05/12 08:30:56;;;;;;;6.78;3.40;;;;;;;42.92;11.73;101043.16;1721903;82;21058;-86
2022/05/12 08:33:24;;;;;;;5.58;3.40;;;;;;;42.54;11.73;101050.72;1722039;82;21476;-84
2022/05/12 08:35:51;;;;;;;12.37;3.08;;;;;;;41.68;11.63;101057.86;1721767;82;21027;-85
2022/05/12 08:38:19;;;;;;;11.78;2.98;;;;;;;41.47;12.39;101057.27;1687121;84;21081;-85
2022/05/12 08:41:17;;;;;;;18.17;4.70;;;;;;;41.51;12.29;101052.27;1713998;83;21625;-86
2022/05/12 08:44:03;;;;;;;11.28;4.65;;;;;;;41.57;12.23;101052.45;1714061;83;21528;-87
2022/05/12 08:46:37;;;;;;;9.43;4.67;;;;;;;41.01;12.35;101045.00;1714056;83;21078;-85
2022/05/12 08:49:25;;;;;;;11.90;4.67;;;;;;;40.64;12.71;101046.74;1711124;83;20962;-86
2022/05/12 08:51:56;;;;;;;7.95;4.12;;;;;;;40.78;12.58;101034.14;1655199;86;21080;-84
2022/05/12 08:54:26;;;;;;;9.40;3.98;;;;;;;40.40;13.00;101038.66;1654991;86;21019;-87
2022/05/12 08:57:03;;;;;;;8.65;4.67;;;;;;;40.32;13.21;101035.91;1655173;86;21642;-84
2022/05/12 08:59:30;;;;;;;16.10;4.83;;;;;;;40.65;12.95;101032.77;1657802;86;21473;-88
2022/05/12 09:02:16;;;;;;;6.72;4.05;;;;;;;40.90;12.72;101025.44;1660132;86;21056;-87
2022/05/12 09:04:53;;;;;;;10.50;4.08;;;;;;;40.36;13.25;101023.87;1660083;86;21172;-84
2022/05/12 09:07:49;;;;;;;10.95;4.08;;;;;;;40.14;13.02;101028.63;1656681;86;21116;-87
2022/05/12 09:10:44;;;;;;;8.83;3.95;;;;;;;40.08;13.45;101020.57;1656666;86;21075;-86
2022/05/12 09:13:33;;;;;;;15.58;4.05;;;;;;;40.12;13.95;101023.45;1714665;83;21070;-85
2022/05/12 09:16:25;;;;;;;8.75;4.03;;;;;;;40.29;13.62;101027.56;1682845;85;21029;-89
2022/05/12 09:18:53;;;;;;;7.90;3.67;;;;;;;40.08;13.44;101013.52;1627113;88;21635;-87
2022/05/12 09:21:27;;;;;;;9.55;3.70;;;;;;;39.49;13.45;101018.59;1626903;88;21057;-84
2022/05/12 09:23:54;;;;;;;10.85;3.47;;;;;;;39.12;13.69;101013.81;1614118;88;21096;-84
2022/05/12 09:26:44;;;;;;;9.20;2.95;;;;;;;39.03;14.01;101015.09;1614237;88;21828;-84
2022/05/12 09:29:24;;;;;;;7.37;3.25;;;;;;;38.79;14.03;101013.92;1614646;88;21073;-87
2022/05/12 09:32:04;;;;;;;5.85;3.27;;;;;;;38.66;14.40;101009.49;1615642;88;21104;-85
2022/05/12 09:34:36;;;;;;;10.75;3.47;;;;;;;38.69;14.36;101013.62;1591904;90;21137;-84
2022/05/12 09:37:22;;;;;;;11.68;3.62;;;;;;;38.58;14.13;101006.07;1592074;90;21057;-85
2022/05/12 09:39:58;;;;;;;11.38;3.90;;;;;;;38.18;14.30;101011.89;1592307;90;21073;-88
2022/05/12 09:42:32;;;;;;;10.80;3.80;;;;;;;37.54;14.50;101016.25;1592151;90;21110;-86
2022/05/12 09:45:10;;;;;;;8.28;3.42;;;;;;;37.33;14.70;101022.48;1592191;90;21129;-88
2022/05/12 09:47:36;;;;;;;8.05;3.72;;;;;;;37.04;14.95;101022.29;1594732;88;21174;-86
2022/05/12 09:50:16;;;;;;;12.20;3.10;;;;;;;36.99;15.27;101009.49;1612870;89;21041;-84
2022/05/12 09:52:46;;;;;;;10.13;3.02;;;;;;;36.75;15.31;101006.58;1618783;87;21045;-89
2022/05/12 09:55:20;;;;;;;8.60;3.27;;;;;;;36.27;15.54;101000.20;1634652;86;21794;-86
2022/05/12 09:57:59;;;;;;;5.40;2.52;;;;;;;35.84;15.78;100994.45;1658851;86;21088;-85
2022/05/12 10:00:39;;;;;;;8.93;2.30;;;;;;;35.76;15.93;100996.56;1658865;86;21061;-85
2022/05/12 10:09:23;;;;;;;16.95;3.02;;;;;;;35.46;16.47;100981.96;1639654;86;20983;-84
2022/05/12 10:12:06;;;;;;;;;;;;;;;35.31;16.37;100981.37;1661352;86;22036;-85
2022/05/12 10:14:40;;;;;;;8.85;2.85;;;;;;;35.13;16.37;100981.60;1656165;84;20185;-84
2022/05/12 10:17:30;;;;;;;5.22;2.52;;;;;;;34.93;16.35;100977.82;1657085;85;21058;-84
2022/05/12 10:20:03;;;;;;;6.03;2.15;;;;;;;34.57;16.54;100986.63;1661823;85;21100;-85
2022/05/12 10:22:34;;;;;;;7.53;2.20;;;;;;;34.34;16.77;100974.62;1681274;85;21552;-86
2022/05/12 10:25:28;;;;;;;5.83;2.30;;;;;;;34.26;16.58;100973.88;1627576;88;21171;-83
2022/05/12 10:28:09;;;;;;;6.50;2.85;;;;;;;33.76;16.74;100967.27;1624540;88;21111;-84
2022/05/12 10:31:01;;;;;;;7.28;2.80;;;;;;;33.72;16.98;100967.11;1635740;86;21099;-84
2022/05/12 10:33:57;;;;;;;9.95;2.50;;;;;;;33.70;17.09;100964.71;1600388;88;26665;-87
2022/05/12 10:36:37;;;;;;;6.37;2.70;;;;;;;33.64;17.44;100968.54;1540697;92;21525;-84
2022/05/12 10:39:18;;;;;;;7.00;2.37;;;;;;;33.46;17.50;100950.45;1541891;92;21085;-86
2022/05/12 10:42:05;;;;;;;6.85;2.42;;;;;;;33.52;17.61;100955.05;1498515;95;20939;-84
2022/05/12 10:45:00;;;;;;;12.33;2.92;;;;;;;33.52;17.37;100948.06;1498317;95;21663;-83
2022/05/12 10:48:03;;;;;;;12.55;3.30;;;;;;;33.46;17.17;100942.68;1498957;95;21130;-86
2022/05/12 10:50:52;;;;;;;5.62;2.37;;;;;;;33.59;17.49;100945.23;1496032;95;21635;-82
2022/05/12 10:53:32;;;;;;;8.03;2.67;;;;;;;33.40;17.51;100939.52;1477514;95;21144;-83
2022/05/12 10:56:25;;;;;;;6.08;2.37;;;;;;;33.36;17.47;100942.95;1475108;97;20972;-84
2022/05/12 10:59:08;;;;;;;8.10;2.55;;;;;;;33.36;17.30;100938.75;1477569;97;21148;-84
2022/05/12 11:01:37;;;;;;;;;;;;;;;33.43;17.38;100933.11;1479466;97;21072;-86
2022/05/12 11:04:20;;;;;;;4.12;2.10;;;;;;;33.35;17.02;100931.55;1477293;97;20191;-83
2022/05/12 11:07:06;;;;;;;6.97;2.40;;;;;;;33.45;17.17;100928.52;1477630;95;21438;-84
2022/05/12 11:09:43;;;;;;;12.10;2.37;;;;;;;33.48;17.29;100922.91;1475448;95;21081;-84
2022/05/12 11:12:15;;;;;;;4.08;2.27;;;;;;;33.38;17.07;100922.36;1470114;96;21062;-85
2022/05/12 11:14:52;;;;;;;5.58;2.40;;;;;;;33.21;17.00;100911.50;1450625;98;21110;-83
2022/05/12 11:17:55;;;;;;;5.95;2.12;;;;;;;33.14;17.33;100901.75;1411335;100;21149;-85
2022/05/12 11:20:36;;;;;;;6.10;2.10;;;;;;;32.75;17.05;100908.89;1410976;101;21813;-84
2022/05/12 11:23:27;;;;;;;13.40;2.40;;;;;;;32.33;17.61;100905.00;1371894;104;21282;-85
2022/05/12 11:26:19;;;;;;;5.60;2.50;;;;;;;32.54;17.94;100901.39;1376176;104;21157;-83
2022/05/12 11:32:23;;;;;;;5.62;2.55;;;;;;;33.06;17.71;100891.81;1433920;99;21119;-84
2022/05/12 11:34:54;;;;;;;13.03;2.80;;;;;;;33.16;17.64;100897.95;1440053;99;21290;-84
2022/05/12 11:37:35;;;;;;;5.42;2.33;;;;;;;33.02;17.50;100888.25;1439619;99;21049;-83
2022/05/12 11:40:12;;;;;;;7.47;3.02;;;;;;;32.94;17.28;100884.66;1432939;99;21257;-83
2022/05/12 11:45:49;;;;;;;6.28;1.92;;;;;;;32.29;17.44;100880.48;1365435;102;21176;-88
2022/05/12 11:48:38;;;;;;;14.38;3.98;;;;;;;31.69;17.76;100879.32;1347061;105;21352;-82
2022/05/12 11:51:09;;;;;;;9.13;2.87;;;;;;;31.53;18.02;100876.91;1346792;105;21552;-85
2022/05/12 11:53:53;;;;;;;6.70;2.58;;;;;;;31.92;18.14;100868.41;1347094;105;21413;-84
2022/05/12 11:56:51;;;;;;;6.78;2.90;;;;;;;32.13;17.91;100871.16;1371435;103;21111;-83
2022/05/12 11:59:35;;;;;;;8.75;2.77;;;;;;;32.26;17.92;100867.34;1370681;104;21136;-85